createdAt,value
2019-02-22T00:01:31.479Z,21.90
2019-02-22T00:03:59.871Z,21.80
2019-02-22T00:06:28.272Z,20.07
2019-02-22T00:08:57.019Z,20.67
2019-02-22T00:11:25.729Z,21.10
2019-02-22T00:13:54.208Z,20.33
2019-02-22T00:16:22.602Z,21.17
2019-02-22T00:18:51.382Z,26.60
2019-02-22T00:21:19.779Z,21.77
2019-02-22T00:23:48.202Z,22.63
2019-02-22T00:26:16.923Z,23.10
2019-02-22T00:28:45.319Z,21.60
2019-02-22T00:31:13.714Z,21.67
2019-02-22T00:33:42.130Z,21.33
2019-02-22T00:36:10.592Z,19.73
2019-02-22T00:38:39.031Z,20.90
2019-02-22T00:41:07.427Z,21.20
2019-02-22T00:43:35.833Z,20.50
2019-02-22T00:46:04.226Z,22.87
2019-02-22T00:48:32.638Z,22.60
2019-02-22T00:51:01.166Z,23.67
2019-02-22T00:53:29.581Z,21.80
2019-02-22T00:55:57.982Z,17.83
2019-02-22T00:58:26.381Z,22.17
2019-02-22T01:00:54.790Z,20.73
2019-02-22T01:03:23.186Z,17.10
2019-02-22T01:05:51.600Z,17.50
2019-02-22T01:08:20.010Z,20.63
2019-02-22T01:10:48.414Z,22.63
2019-02-22T01:13:36.158Z,21.90
2019-02-22T01:16:04.571Z,21.27
2019-02-22T01:18:32.966Z,27.77
2019-02-22T01:21:21.051Z,23.77
2019-02-22T01:23:49.451Z,24.67
2019-02-22T01:26:17.887Z,23.17
2019-02-22T01:28:46.302Z,19.07
2019-02-22T01:31:14.695Z,21.47
2019-02-22T01:33:43.123Z,20.37
2019-02-22T01:36:11.518Z,21.27
2019-02-22T01:38:39.922Z,24.07
2019-02-22T01:41:08.691Z,23.10
2019-02-22T01:43:37.099Z,21.53
2019-02-22T01:46:05.519Z,19.73
2019-02-22T01:48:34.248Z,18.53
2019-02-22T01:51:02.649Z,22.23
2019-02-22T01:53:31.046Z,18.03
2019-02-22T01:55:59.455Z,18.57
2019-02-22T01:58:27.862Z,20.97
2019-02-22T02:00:56.261Z,19.73
2019-02-22T02:03:24.674Z,18.73
2019-02-22T02:05:53.066Z,20.67
2019-02-22T02:08:21.782Z,20.73
2019-02-22T02:10:54.103Z,19.03
2019-02-22T02:13:20.316Z,20.13
2019-02-22T02:15:48.714Z,22.23
2019-02-22T02:18:17.120Z,18.37
2019-02-22T02:20:45.569Z,20.53
2019-02-22T02:23:33.342Z,19.30
2019-02-22T02:26:01.754Z,21.13
2019-02-22T02:28:30.394Z,23.00
2019-02-22T02:30:58.880Z,20.43
2019-02-22T02:33:27.270Z,23.27
2019-02-22T02:35:55.676Z,18.97
2019-02-22T02:38:24.080Z,22.73
2019-02-22T02:40:52.829Z,23.50
2019-02-22T02:43:21.243Z,20.73
2019-02-22T02:45:49.645Z,23.17
2019-02-22T02:48:18.030Z,21.53
2019-02-22T02:50:46.665Z,20.17
2019-02-22T02:53:15.074Z,21.63
2019-02-22T02:55:43.730Z,19.67
2019-02-22T02:58:12.283Z,20.43
2019-02-22T03:00:40.722Z,18.17
2019-02-22T03:03:09.192Z,23.93
2019-02-22T03:05:41.939Z,25.37
2019-02-22T03:08:10.349Z,27.07
2019-02-22T03:10:38.758Z,22.00
2019-02-22T03:13:07.155Z,23.27
2019-02-22T03:15:35.791Z,24.17
2019-02-22T03:18:04.216Z,25.00
2019-02-22T03:20:32.664Z,19.93
2019-02-22T03:23:01.067Z,19.13
2019-02-22T03:25:29.476Z,21.70
2019-02-22T03:27:57.871Z,22.83
2019-02-22T03:30:26.532Z,24.17
2019-02-22T03:32:54.924Z,19.47
2019-02-22T03:35:23.358Z,20.90
2019-02-22T03:37:51.775Z,24.20
2019-02-22T03:40:20.165Z,22.37
2019-02-22T03:42:48.610Z,23.90
2019-02-22T03:45:17.005Z,23.47
2019-02-22T03:47:45.398Z,21.37
2019-02-22T03:50:13.883Z,21.83
2019-02-22T03:52:43.924Z,24.70
2019-02-22T03:55:12.404Z,22.03
2019-02-22T03:57:40.814Z,26.07
2019-02-22T04:00:28.564Z,24.83
2019-02-22T04:02:56.982Z,25.33
2019-02-22T04:05:25.385Z,27.10
2019-02-22T04:07:53.779Z,27.97
2019-02-22T04:10:22.447Z,28.30
2019-02-22T04:12:50.850Z,30.33
2019-02-22T04:15:19.244Z,27.63
2019-02-22T04:17:47.655Z,28.33
2019-02-22T04:20:16.071Z,25.13
2019-02-22T04:22:44.646Z,25.40
2019-02-22T04:25:13.130Z,29.60
2019-02-22T04:27:41.534Z,26.47
2019-02-22T04:30:10.893Z,30.80
2019-02-22T04:32:39.334Z,29.10
2019-02-22T04:35:08.046Z,28.90
2019-02-22T04:37:36.444Z,29.53
2019-02-22T04:40:06.296Z,28.53
2019-02-22T04:42:34.704Z,29.50
2019-02-22T04:45:03.166Z,31.53
2019-02-22T04:47:31.559Z,28.27
2019-02-22T04:49:59.960Z,30.40
2019-02-22T04:52:28.370Z,28.00
2019-02-22T04:54:56.836Z,32.43
2019-02-22T04:57:25.255Z,32.53
2019-02-22T04:59:53.651Z,30.93
2019-02-22T05:02:22.053Z,32.13
2019-02-22T05:04:50.476Z,30.87
2019-02-22T05:07:18.933Z,30.80
2019-02-22T05:09:47.346Z,30.37
2019-02-22T05:12:15.751Z,30.73
2019-02-22T05:14:44.395Z,26.03
2019-02-22T05:17:13.023Z,33.77
2019-02-22T05:19:41.430Z,28.80
2019-02-22T05:22:09.847Z,29.20
2019-02-22T05:24:38.258Z,33.33
2019-02-22T05:27:06.669Z,28.97
2019-02-22T05:29:35.275Z,29.30
2019-02-22T05:32:03.739Z,28.43
2019-02-22T05:34:32.233Z,29.87
2019-02-22T05:37:00.661Z,36.10
2019-02-22T05:39:29.402Z,32.67
2019-02-22T05:41:57.799Z,32.53
2019-02-22T05:44:26.196Z,30.23
2019-02-22T05:47:00.322Z,38.17
2019-02-22T05:49:25.195Z,36.13
2019-02-22T05:51:53.786Z,39.07
2019-02-22T05:54:22.194Z,35.30
2019-02-22T05:56:50.597Z,35.40
2019-02-22T05:59:19.026Z,42.97
2019-02-22T06:01:47.418Z,42.73
2019-02-22T06:04:15.926Z,40.30
2019-02-22T06:06:44.315Z,42.23
2019-02-22T06:09:12.731Z,44.77
2019-02-22T06:11:41.134Z,46.67
2019-02-22T06:14:09.530Z,48.57
2019-02-22T06:16:39.972Z,48.83
2019-02-22T06:19:08.755Z,49.70
2019-02-22T06:21:37.151Z,51.30
2019-02-22T06:24:05.562Z,51.23
2019-02-22T06:26:33.960Z,55.53
2019-02-22T06:29:02.370Z,53.77
2019-02-22T06:31:30.783Z,54.50
2019-02-22T06:33:59.188Z,51.57
2019-02-22T06:36:27.594Z,60.90
2019-02-22T06:38:56.007Z,49.83
2019-02-22T06:41:24.414Z,52.27
2019-02-22T06:43:52.834Z,57.53
2019-02-22T06:46:21.268Z,50.40
2019-02-22T06:48:49.907Z,54.00
2019-02-22T06:51:18.391Z,55.00
2019-02-22T06:53:47.035Z,50.70
2019-02-22T06:56:15.465Z,51.00
2019-02-22T06:58:43.976Z,50.10
2019-02-22T07:01:12.368Z,47.40
2019-02-22T07:03:40.787Z,49.73
2019-02-22T07:06:09.458Z,53.00
2019-02-22T07:08:37.858Z,46.83
2019-02-22T07:11:11.150Z,51.00
2019-02-22T07:13:39.665Z,53.33
2019-02-22T07:16:08.136Z,52.67
2019-02-22T07:18:36.555Z,49.00
2019-02-22T07:21:04.988Z,50.13
2019-02-22T07:23:33.409Z,45.70
2019-02-22T07:26:01.795Z,54.83
2019-02-22T07:28:30.202Z,53.50
2019-02-22T07:30:58.607Z,49.77
2019-02-22T07:33:27.016Z,46.67
2019-02-22T07:35:55.428Z,46.97
2019-02-22T07:38:23.835Z,50.60
2019-02-22T07:40:52.255Z,49.33
2019-02-22T07:43:20.654Z,45.07
2019-02-22T07:45:49.083Z,46.00
2019-02-22T07:48:17.481Z,50.77
2019-02-22T07:50:56.806Z,45.67
2019-02-22T07:53:16.009Z,46.57
2019-02-22T07:55:44.419Z,45.03
2019-02-22T07:58:12.856Z,42.90
2019-02-22T08:00:41.250Z,43.37
2019-02-22T08:03:09.651Z,43.10
2019-02-22T08:05:38.071Z,42.33
2019-02-22T08:08:06.482Z,46.47
2019-02-22T08:10:34.917Z,42.93
2019-02-22T08:13:03.507Z,41.40
2019-02-22T08:15:31.994Z,40.93
2019-02-22T08:18:00.390Z,42.40
2019-02-22T08:20:28.811Z,44.17
2019-02-22T08:22:57.203Z,45.80
2019-02-22T08:25:25.597Z,37.90
2019-02-22T08:27:54.497Z,38.43
2019-02-22T08:30:23.110Z,38.53
2019-02-22T08:32:51.526Z,38.60
2019-02-22T08:35:20.030Z,39.13
2019-02-22T08:37:48.561Z,37.00
2019-02-22T08:40:16.963Z,33.10
2019-02-22T08:43:04.722Z,36.33
2019-02-22T08:45:33.121Z,31.73
2019-02-22T08:48:01.516Z,37.97
2019-02-22T08:50:30.023Z,34.13
2019-02-22T08:52:58.421Z,34.83
2019-02-22T08:55:26.828Z,32.90
2019-02-22T08:57:55.258Z,33.23
2019-02-22T09:00:23.671Z,33.60
2019-02-22T09:02:52.061Z,35.67
2019-02-22T09:05:20.481Z,31.70
2019-02-22T09:07:48.892Z,32.30
2019-02-22T09:10:17.343Z,37.80
2019-02-22T09:12:45.742Z,37.33
2019-02-22T09:15:14.154Z,34.43
2019-02-22T09:17:42.566Z,33.80
2019-02-22T09:20:12.521Z,34.73
2019-02-22T09:22:40.944Z,34.03
2019-02-22T09:25:09.690Z,35.30
2019-02-22T09:27:38.102Z,33.13
2019-02-22T09:30:28.913Z,35.00
2019-02-22T09:32:57.330Z,34.27
2019-02-22T09:35:25.744Z,35.03
2019-02-22T09:37:54.135Z,36.20
2019-02-22T09:40:22.543Z,35.97
2019-02-22T09:42:50.943Z,35.07
2019-02-22T09:45:19.358Z,35.77
2019-02-22T09:47:48.111Z,35.13
2019-02-22T09:50:16.902Z,34.43
2019-02-22T09:52:45.374Z,34.73
2019-02-22T09:55:15.605Z,35.43
2019-02-22T09:57:44.008Z,34.03
2019-02-22T10:00:15.340Z,36.43
2019-02-22T10:02:44.840Z,30.90
2019-02-22T10:05:13.723Z,30.50
2019-02-22T10:07:42.115Z,30.90
2019-02-22T10:10:11.245Z,34.87
2019-02-22T10:12:39.667Z,30.90
2019-02-22T10:15:27.403Z,30.63
2019-02-22T10:17:55.822Z,33.30
2019-02-22T10:20:24.286Z,29.23
2019-02-22T10:23:12.263Z,23.03
2019-02-22T10:25:40.915Z,28.67
2019-02-22T10:28:17.348Z,23.30
2019-02-22T10:30:39.879Z,20.70
2019-02-22T10:33:08.282Z,20.20
2019-02-22T10:35:36.687Z,21.00
2019-02-22T10:38:05.098Z,21.23
2019-02-22T10:40:33.498Z,18.93
2019-02-22T10:43:01.931Z,17.03
2019-02-22T10:45:30.343Z,20.17
2019-02-22T10:47:58.747Z,17.83
2019-02-22T10:50:27.178Z,17.13
2019-02-22T10:53:02.116Z,18.03
2019-02-22T10:55:25.694Z,17.67
2019-02-22T10:57:54.099Z,14.50
2019-02-22T11:00:22.494Z,11.83
2019-02-22T11:02:50.896Z,12.03
2019-02-22T11:05:19.300Z,14.87
2019-02-22T11:07:47.733Z,11.20
2019-02-22T11:10:16.122Z,9.97
2019-02-22T11:12:44.526Z,13.50
2019-02-22T11:15:13.870Z,11.13
2019-02-22T11:17:42.285Z,14.00
2019-02-22T11:20:11.523Z,13.13
2019-02-22T11:22:39.986Z,13.93
2019-02-22T11:25:16.519Z,13.50
2019-02-22T11:27:44.934Z,12.83
2019-02-22T11:30:14.658Z,14.23
2019-02-22T11:32:43.054Z,10.90
2019-02-22T11:35:11.463Z,12.43
2019-02-22T11:37:39.882Z,14.60
2019-02-22T11:40:10.075Z,13.60
2019-02-22T11:42:38.598Z,14.00
2019-02-22T11:45:08.339Z,13.97
2019-02-22T11:47:36.730Z,14.90
2019-02-22T11:50:08.159Z,16.17
2019-02-22T11:52:36.580Z,12.97
2019-02-22T11:55:07.163Z,12.43
2019-02-22T11:57:35.660Z,8.33
2019-02-22T12:00:07.499Z,8.13
2019-02-22T12:02:35.890Z,9.97
2019-02-22T12:05:04.853Z,8.17
2019-02-22T12:07:33.566Z,6.43
2019-02-22T12:10:01.962Z,11.80
2019-02-22T12:12:30.402Z,7.67
2019-02-22T12:14:58.806Z,7.83
2019-02-22T12:17:27.226Z,7.20
2019-02-22T12:19:55.638Z,7.97
2019-02-22T12:22:24.042Z,7.40
2019-02-22T12:24:52.611Z,7.73
2019-02-22T12:27:21.031Z,7.30
2019-02-22T12:29:49.426Z,6.97
2019-02-22T12:32:17.829Z,7.10
2019-02-22T12:34:46.226Z,5.53
2019-02-22T12:37:15.563Z,6.33
2019-02-22T12:39:43.970Z,6.40
2019-02-22T12:42:12.355Z,6.50
2019-02-22T12:44:40.759Z,6.50
2019-02-22T12:47:09.158Z,5.07
2019-02-22T12:49:40.156Z,6.60
2019-02-22T12:52:08.121Z,5.17
2019-02-22T12:54:36.514Z,4.73
2019-02-22T12:57:05.001Z,6.97
2019-02-22T12:59:33.390Z,5.60
2019-02-22T13:02:01.796Z,4.10
2019-02-22T13:04:30.226Z,6.67
2019-02-22T13:06:58.618Z,5.67
2019-02-22T13:09:36.272Z,7.83
2019-02-22T13:11:57.150Z,9.67
2019-02-22T13:14:25.543Z,7.73
2019-02-22T13:16:53.996Z,5.50
2019-02-22T13:19:22.393Z,9.13
2019-02-22T13:21:50.790Z,6.93
2019-02-22T13:24:19.200Z,8.63
2019-02-22T13:26:47.618Z,7.60
2019-02-22T13:29:16.016Z,7.43
2019-02-22T13:31:44.418Z,7.70
2019-02-22T13:34:12.824Z,6.30
2019-02-22T13:36:41.221Z,7.67
2019-02-22T13:39:09.631Z,5.17
2019-02-22T13:41:38.031Z,8.03
2019-02-22T13:44:06.434Z,7.10
2019-02-22T13:46:34.873Z,6.33
2019-02-22T13:49:03.389Z,6.47
2019-02-22T13:51:33.971Z,7.67
2019-02-22T13:54:02.257Z,4.83
2019-02-22T13:56:30.829Z,5.13
2019-02-22T13:58:59.234Z,5.03
2019-02-22T14:01:27.943Z,7.33
2019-02-22T14:03:56.333Z,4.63
2019-02-22T14:06:24.899Z,5.37
2019-02-22T14:08:53.295Z,6.87
2019-02-22T14:11:21.705Z,5.40
2019-02-22T14:13:50.137Z,5.23
2019-02-22T14:16:18.521Z,6.20
2019-02-22T14:18:47.070Z,4.97
2019-02-22T14:21:15.611Z,4.77
2019-02-22T14:23:44.898Z,5.07
2019-02-22T14:26:13.394Z,5.40
2019-02-22T14:28:41.801Z,4.70
2019-02-22T14:31:10.199Z,4.53
2019-02-22T14:33:38.598Z,6.93
2019-02-22T14:36:06.996Z,5.80
2019-02-22T14:38:35.569Z,7.80
2019-02-22T14:41:04.024Z,6.00
2019-02-22T14:43:32.427Z,5.97
2019-02-22T14:46:00.850Z,8.13
2019-02-22T14:48:29.247Z,4.73
2019-02-22T14:50:57.666Z,7.17
2019-02-22T14:53:26.059Z,6.50
2019-02-22T14:55:54.462Z,6.43
2019-02-22T14:58:23.204Z,6.00
2019-02-22T15:00:51.667Z,7.27
2019-02-22T15:03:20.082Z,7.17
2019-02-22T15:05:48.485Z,6.00
2019-02-22T15:08:16.901Z,7.27
2019-02-22T15:10:45.298Z,7.30
2019-02-22T15:13:16.691Z,5.00
2019-02-22T15:16:00.106Z,6.27
2019-02-22T15:18:21.091Z,5.37
2019-02-22T15:20:49.507Z,6.43
2019-02-22T15:23:17.931Z,4.33
2019-02-22T15:25:46.347Z,5.87
2019-02-22T15:28:14.842Z,4.27
2019-02-22T15:30:45.066Z,6.07
2019-02-22T15:33:13.366Z,4.20
2019-02-22T15:35:41.762Z,6.27
2019-02-22T15:38:29.507Z,5.00
2019-02-22T15:40:57.953Z,5.33
2019-02-22T15:43:26.422Z,6.20
2019-02-22T15:45:55.024Z,5.50
2019-02-22T15:48:23.529Z,4.67
2019-02-22T15:50:51.944Z,3.97
2019-02-22T15:53:20.613Z,5.63
2019-02-22T15:55:49.830Z,4.53
2019-02-22T15:58:18.282Z,5.03
2019-02-22T16:00:46.683Z,4.50
2019-02-22T16:03:15.098Z,4.10
2019-02-22T16:05:45.317Z,5.43
2019-02-22T16:08:13.714Z,4.17
2019-02-22T16:11:01.455Z,5.47
2019-02-22T16:13:32.575Z,6.17
2019-02-22T16:16:00.987Z,6.63
2019-02-22T16:18:29.371Z,3.60
2019-02-22T16:20:57.791Z,4.83
2019-02-22T16:23:26.188Z,4.43
2019-02-22T16:25:54.638Z,4.93
2019-02-22T16:28:23.050Z,5.43
2019-02-22T16:30:51.443Z,4.73
2019-02-22T16:33:19.875Z,2.80
2019-02-22T16:35:48.549Z,3.90
2019-02-22T16:38:16.957Z,5.13
2019-02-22T16:40:45.353Z,3.97
2019-02-22T16:43:13.806Z,7.57
2019-02-22T16:45:42.209Z,7.80
2019-02-22T16:48:10.601Z,8.43
2019-02-22T16:50:39.015Z,4.70
2019-02-22T16:53:07.423Z,5.43
2019-02-22T16:55:35.822Z,4.17
2019-02-22T16:58:04.235Z,4.83
2019-02-22T17:00:32.858Z,4.13
2019-02-22T17:03:01.270Z,5.57
2019-02-22T17:05:29.657Z,8.23
2019-02-22T17:07:58.046Z,9.77
2019-02-22T17:10:26.442Z,15.03
2019-02-22T17:12:54.850Z,15.37
2019-02-22T17:15:23.518Z,12.30
2019-02-22T17:17:51.912Z,8.87
2019-02-22T17:20:20.651Z,9.00
2019-02-22T17:22:49.039Z,5.53
2019-02-22T17:25:21.461Z,11.23
2019-02-22T17:27:50.006Z,9.70
2019-02-22T17:30:20.340Z,7.03
2019-02-22T17:32:48.728Z,8.57
2019-02-22T17:35:17.204Z,4.60
2019-02-22T17:37:45.595Z,7.60
2019-02-22T17:40:24.715Z,7.13
2019-02-22T17:42:53.117Z,5.03
2019-02-22T17:45:21.502Z,6.30
2019-02-22T17:47:49.911Z,7.10
2019-02-22T17:50:18.306Z,4.33
2019-02-22T17:52:47.014Z,5.57
2019-02-22T17:55:15.494Z,4.80
2019-02-22T17:57:43.895Z,3.57
2019-02-22T18:00:16.047Z,7.80
2019-02-22T18:02:44.447Z,6.13
2019-02-22T18:05:13.000Z,6.73
2019-02-22T18:07:41.408Z,6.73
2019-02-22T18:10:10.863Z,7.90
2019-02-22T18:12:39.255Z,7.87
2019-02-22T18:15:10.318Z,7.03
2019-02-22T18:17:39.094Z,9.07
2019-02-22T18:20:08.618Z,7.70
2019-02-22T18:22:37.030Z,7.83
2019-02-22T18:25:07.926Z,8.60
2019-02-22T18:27:36.327Z,8.00
2019-02-22T18:30:07.790Z,7.10
2019-02-22T18:32:36.198Z,7.43
2019-02-22T18:35:05.527Z,6.20
2019-02-22T18:37:34.138Z,8.73
2019-02-22T18:40:02.704Z,7.80
2019-02-22T18:42:32.215Z,7.20
2019-02-22T18:45:00.623Z,8.57
2019-02-22T18:47:29.174Z,11.03
2019-02-22T18:49:57.567Z,7.13
2019-02-22T18:52:25.975Z,6.60
2019-02-22T18:54:54.410Z,8.07
2019-02-22T18:57:23.107Z,10.00
2019-02-22T18:59:51.579Z,8.63
2019-02-22T19:02:19.966Z,6.30
2019-02-22T19:04:48.371Z,7.53
2019-02-22T19:07:16.759Z,8.43
2019-02-22T19:09:45.153Z,10.73
2019-02-22T19:12:13.555Z,8.60
2019-02-22T19:14:41.942Z,9.67
2019-02-22T19:17:10.367Z,6.90
2019-02-22T19:19:38.763Z,7.17
2019-02-22T19:22:07.159Z,11.70
2019-02-22T19:24:35.584Z,25.27
2019-02-22T19:27:04.074Z,17.00
2019-02-22T19:29:32.472Z,15.87
2019-02-22T19:32:00.882Z,20.80
2019-02-22T19:34:29.290Z,13.20
2019-02-22T19:36:57.698Z,10.70
2019-02-22T19:39:26.114Z,24.00
2019-02-22T19:41:54.509Z,16.93
2019-02-22T19:44:22.914Z,23.73
2019-02-22T19:46:51.343Z,20.00
2019-02-22T19:49:19.740Z,18.00
2019-02-22T19:51:48.213Z,20.07
2019-02-22T19:54:16.595Z,22.20
2019-02-22T19:56:45.039Z,24.93
2019-02-22T19:59:13.653Z,22.07
2019-02-22T20:01:42.046Z,25.40
2019-02-22T20:04:10.440Z,24.20
2019-02-22T20:06:38.841Z,24.83
2019-02-22T20:09:07.750Z,21.57
2019-02-22T20:11:36.195Z,21.97
2019-02-22T20:14:04.590Z,23.57
2019-02-22T20:16:33.073Z,22.50
2019-02-22T20:19:01.568Z,24.13
2019-02-22T20:21:29.984Z,17.53
2019-02-22T20:23:58.387Z,22.93
2019-02-22T20:26:26.815Z,18.80
2019-02-22T20:28:55.237Z,17.70
2019-02-22T20:31:23.639Z,20.67
2019-02-22T20:33:52.141Z,22.43
2019-02-22T20:36:28.060Z,16.53
2019-02-22T20:38:51.034Z,17.00
2019-02-22T20:41:19.462Z,17.27
2019-02-22T20:43:47.912Z,16.27
2019-02-22T20:46:16.326Z,16.20
2019-02-22T20:48:44.727Z,22.20
2019-02-22T20:51:13.215Z,20.33
2019-02-22T20:53:41.722Z,17.80
2019-02-22T20:56:10.155Z,20.07
2019-02-22T20:58:38.538Z,18.57
2019-02-22T21:01:14.403Z,20.63
2019-02-22T21:03:37.516Z,23.53
2019-02-22T21:06:05.905Z,23.20
2019-02-22T21:08:34.335Z,19.00
2019-02-22T21:11:02.728Z,21.80
2019-02-22T21:13:31.132Z,21.37
2019-02-22T21:15:59.545Z,18.10
2019-02-22T21:18:27.962Z,19.53
2019-02-22T21:20:56.374Z,19.60
2019-02-22T21:23:24.799Z,18.03
2019-02-22T21:25:53.300Z,18.87
2019-02-22T21:28:21.769Z,20.00
2019-02-22T21:30:50.187Z,19.17
2019-02-22T21:33:18.589Z,18.77
2019-02-22T21:35:47.117Z,18.43
2019-02-22T21:38:15.590Z,21.30
2019-02-22T21:40:44.017Z,17.57
2019-02-22T21:43:12.417Z,22.30
2019-02-22T21:45:40.839Z,23.43
2019-02-22T21:48:09.237Z,25.37
2019-02-22T21:50:37.634Z,22.60
2019-02-22T21:53:06.059Z,24.00
2019-02-22T21:55:34.465Z,19.87
2019-02-22T21:58:02.887Z,24.27
2019-02-22T22:00:31.649Z,23.20
2019-02-22T22:03:00.046Z,19.50
2019-02-22T22:05:28.598Z,18.93
2019-02-22T22:07:56.994Z,21.27
2019-02-22T22:10:25.394Z,18.53
2019-02-22T22:12:53.808Z,15.47
2019-02-22T22:15:22.266Z,16.13
2019-02-22T22:17:50.700Z,15.87
2019-02-22T22:20:19.094Z,16.37
2019-02-22T22:22:47.487Z,13.90
2019-02-22T22:25:16.468Z,16.93
2019-02-22T22:27:44.906Z,20.40
2019-02-22T22:30:14.963Z,19.33
2019-02-22T22:32:43.405Z,17.67
2019-02-22T22:35:14.142Z,16.17
2019-02-22T22:37:42.562Z,18.63
2019-02-22T22:40:11.463Z,19.33
2019-02-22T22:42:39.906Z,18.03
2019-02-22T22:45:10.654Z,16.83
2019-02-22T22:47:39.061Z,17.23
2019-02-22T22:50:12.639Z,16.70
2019-02-22T22:52:41.060Z,15.90
2019-02-22T22:55:10.695Z,14.07
2019-02-22T22:57:39.282Z,14.23
2019-02-22T23:00:27.726Z,16.80
2019-02-22T23:02:56.294Z,15.93
2019-02-22T23:05:24.707Z,15.77
2019-02-22T23:07:53.163Z,14.53
2019-02-22T23:10:21.572Z,15.47
2019-02-22T23:12:49.966Z,14.10
2019-02-22T23:15:18.364Z,12.83
2019-02-22T23:17:46.767Z,13.60
2019-02-22T23:20:15.550Z,13.47
2019-02-22T23:22:43.942Z,15.20
2019-02-22T23:25:12.349Z,17.80
2019-02-22T23:27:40.814Z,14.30
2019-02-22T23:30:09.335Z,18.60
2019-02-22T23:32:37.727Z,18.80
2019-02-22T23:35:25.488Z,18.10
2019-02-22T23:37:53.882Z,17.00
2019-02-22T23:40:22.283Z,18.83
2019-02-22T23:42:50.674Z,23.07
2019-02-22T23:45:19.110Z,18.63
2019-02-22T23:47:47.502Z,20.70
2019-02-22T23:50:15.899Z,22.03
2019-02-22T23:52:44.307Z,17.33
2019-02-22T23:55:12.714Z,15.77
2019-02-22T23:57:41.430Z,13.43
